sensor_id;sensor_type;location;lat;lon;timestamp;temperature;humidity
13375;DHT22;6756;51.354;15.754;2023-02-19T00:02:46;6.10;99.90
13375;DHT22;6756;51.354;15.754;2023-02-19T00:06:47;6.10;99.90
13375;DHT22;6756;51.354;15.754;2023-02-19T00:10:48;6.10;99.90
13375;DHT22;6756;51.354;15.754;2023-02-19T00:14:49;6.10;99.90
13375;DHT22;6756;51.354;15.754;2023-02-19T00:18:50;6.10;99.90
13375;DHT22;6756;51.354;15.754;2023-02-19T00:22:52;6.10;99.90
13375;DHT22;6756;51.354;15.754;2023-02-19T00:26:53;6.10;99.90
13375;DHT22;6756;51.354;15.754;2023-02-19T00:30:54;6.10;99.90
13375;DHT22;6756;51.354;15.754;2023-02-19T00:34:55;6.00;99.90
13375;DHT22;6756;51.354;15.754;2023-02-19T00:38:55;6.10;99.90
13375;DHT22;6756;51.354;15.754;2023-02-19T00:42:56;6.10;99.90
13375;DHT22;6756;51.354;15.754;2023-02-19T00:46:57;6.10;99.90
13375;DHT22;6756;51.354;15.754;2023-02-19T00:50:58;6.10;99.90
13375;DHT22;6756;51.354;15.754;2023-02-19T00:54:58;6.00;99.90
13375;DHT22;6756;51.354;15.754;2023-02-19T00:58:59;6.00;99.90
13375;DHT22;6756;51.354;15.754;2023-02-19T01:03:00;6.00;99.90
13375;DHT22;6756;51.354;15.754;2023-02-19T01:07:01;6.00;99.90
13375;DHT22;6756;51.354;15.754;2023-02-19T01:11:03;5.90;99.90
13375;DHT22;6756;51.354;15.754;2023-02-19T01:15:05;5.90;99.90
13375;DHT22;6756;51.354;15.754;2023-02-19T01:19:06;5.90;99.90
13375;DHT22;6756;51.354;15.754;2023-02-19T01:23:07;5.90;99.90
13375;DHT22;6756;51.354;15.754;2023-02-19T01:27:09;5.80;99.90
13375;DHT22;6756;51.354;15.754;2023-02-19T01:31:20;5.80;99.90
13375;DHT22;6756;51.354;15.754;2023-02-19T01:35:21;5.70;99.90
13375;DHT22;6756;51.354;15.754;2023-02-19T01:39:22;5.70;99.90
13375;DHT22;6756;51.354;15.754;2023-02-19T01:43:24;5.70;99.90
13375;DHT22;6756;51.354;15.754;2023-02-19T01:47:24;5.70;99.90
13375;DHT22;6756;51.354;15.754;2023-02-19T01:51:25;5.70;99.90
13375;DHT22;6756;51.354;15.754;2023-02-19T01:55:27;5.70;99.90
13375;DHT22;6756;51.354;15.754;2023-02-19T01:59:28;5.70;99.90
13375;DHT22;6756;51.354;15.754;2023-02-19T02:03:31;5.80;99.90
13375;DHT22;6756;51.354;15.754;2023-02-19T02:07:33;5.80;99.90
13375;DHT22;6756;51.354;15.754;2023-02-19T02:11:52;5.80;99.90
13375;DHT22;6756;51.354;15.754;2023-02-19T02:33:11;5.80;99.90
13375;DHT22;6756;51.354;15.754;2023-02-19T02:37:14;5.80;99.90
13375;DHT22;6756;51.354;15.754;2023-02-19T02:41:16;5.80;99.90
13375;DHT22;6756;51.354;15.754;2023-02-19T02:49:36;5.70;99.90
13375;DHT22;6756;51.354;15.754;2023-02-19T02:54:06;5.70;99.90
13375;DHT22;6756;51.354;15.754;2023-02-19T02:58:26;5.70;99.90
13375;DHT22;6756;51.354;15.754;2023-02-19T03:02:29;5.70;99.90
13375;DHT22;6756;51.354;15.754;2023-02-19T03:06:33;5.70;99.90
13375;DHT22;6756;51.354;15.754;2023-02-19T03:10:38;5.70;99.90
13375;DHT22;6756;51.354;15.754;2023-02-19T03:14:50;5.80;99.90
13375;DHT22;6756;51.354;15.754;2023-02-19T03:19:13;5.80;99.90
13375;DHT22;6756;51.354;15.754;2023-02-19T03:23:22;5.70;99.90
13375;DHT22;6756;51.354;15.754;2023-02-19T03:27:47;5.70;99.90
13375;DHT22;6756;51.354;15.754;2023-02-19T03:31:52;5.70;99.90
13375;DHT22;6756;51.354;15.754;2023-02-19T03:35:59;5.70;99.90
13375;DHT22;6756;51.354;15.754;2023-02-19T03:40:01;5.70;99.90
13375;DHT22;6756;51.354;15.754;2023-02-19T03:48:40;5.70;99.90
13375;DHT22;6756;51.354;15.754;2023-02-19T04:02:04;5.60;99.90
13375;DHT22;6756;51.354;15.754;2023-02-19T04:05:47;5.60;99.90
13375;DHT22;6756;51.354;15.754;2023-02-19T04:09:51;5.50;99.90
13375;DHT22;6756;51.354;15.754;2023-02-19T04:14:43;5.50;99.90
13375;DHT22;6756;51.354;15.754;2023-02-19T04:18:27;5.50;99.90
13375;DHT22;6756;51.354;15.754;2023-02-19T04:22:30;5.50;99.90
13375;DHT22;6756;51.354;15.754;2023-02-19T04:26:32;5.50;99.90
13375;DHT22;6756;51.354;15.754;2023-02-19T04:30:33;5.50;99.90
13375;DHT22;6756;51.354;15.754;2023-02-19T04:34:34;5.50;99.90
13375;DHT22;6756;51.354;15.754;2023-02-19T04:38:35;5.50;99.90
13375;DHT22;6756;51.354;15.754;2023-02-19T04:42:35;5.50;99.90
13375;DHT22;6756;51.354;15.754;2023-02-19T04:46:36;5.50;99.90
13375;DHT22;6756;51.354;15.754;2023-02-19T04:50:38;5.50;99.90
13375;DHT22;6756;51.354;15.754;2023-02-19T04:54:39;5.50;99.90
13375;DHT22;6756;51.354;15.754;2023-02-19T04:58:40;5.50;99.90
13375;DHT22;6756;51.354;15.754;2023-02-19T05:02:41;5.40;99.90
13375;DHT22;6756;51.354;15.754;2023-02-19T05:06:42;5.40;99.90
13375;DHT22;6756;51.354;15.754;2023-02-19T05:10:43;5.40;99.90
13375;DHT22;6756;51.354;15.754;2023-02-19T05:14:44;5.40;99.90
13375;DHT22;6756;51.354;15.754;2023-02-19T05:18:45;5.40;99.90
13375;DHT22;6756;51.354;15.754;2023-02-19T05:22:46;5.40;99.90
13375;DHT22;6756;51.354;15.754;2023-02-19T05:26:47;5.40;99.90
13375;DHT22;6756;51.354;15.754;2023-02-19T05:30:50;5.40;99.90
13375;DHT22;6756;51.354;15.754;2023-02-19T05:34:51;5.30;99.90
13375;DHT22;6756;51.354;15.754;2023-02-19T05:38:53;5.30;99.90
13375;DHT22;6756;51.354;15.754;2023-02-19T05:42:54;5.30;99.90
13375;DHT22;6756;51.354;15.754;2023-02-19T05:46:55;5.30;99.90
13375;DHT22;6756;51.354;15.754;2023-02-19T05:51:10;5.30;99.90
13375;DHT22;6756;51.354;15.754;2023-02-19T05:55:11;5.30;99.90
13375;DHT22;6756;51.354;15.754;2023-02-19T05:59:20;5.30;99.90
13375;DHT22;6756;51.354;15.754;2023-02-19T06:03:21;5.20;99.90
13375;DHT22;6756;51.354;15.754;2023-02-19T06:07:21;5.20;99.90
13375;DHT22;6756;51.354;15.754;2023-02-19T06:11:23;5.20;99.90
13375;DHT22;6756;51.354;15.754;2023-02-19T06:15:23;5.20;99.90
13375;DHT22;6756;51.354;15.754;2023-02-19T06:19:24;5.20;99.90
13375;DHT22;6756;51.354;15.754;2023-02-19T06:23:27;5.20;99.90
13375;DHT22;6756;51.354;15.754;2023-02-19T06:27:28;5.20;99.90
13375;DHT22;6756;51.354;15.754;2023-02-19T06:31:29;5.20;99.90
13375;DHT22;6756;51.354;15.754;2023-02-19T06:35:29;5.00;99.90
13375;DHT22;6756;51.354;15.754;2023-02-19T06:39:30;4.90;99.90
13375;DHT22;6756;51.354;15.754;2023-02-19T06:43:32;4.80;99.90
13375;DHT22;6756;51.354;15.754;2023-02-19T06:47:33;4.70;99.90
13375;DHT22;6756;51.354;15.754;2023-02-19T06:51:34;4.70;99.90
13375;DHT22;6756;51.354;15.754;2023-02-19T06:55:34;4.70;99.90
13375;DHT22;6756;51.354;15.754;2023-02-19T06:59:35;4.60;99.90
13375;DHT22;6756;51.354;15.754;2023-02-19T07:03:36;4.40;99.90
13375;DHT22;6756;51.354;15.754;2023-02-19T07:07:37;4.20;99.90
13375;DHT22;6756;51.354;15.754;2023-02-19T07:11:39;4.00;99.90
13375;DHT22;6756;51.354;15.754;2023-02-19T07:15:40;3.80;99.90
13375;DHT22;6756;51.354;15.754;2023-02-19T07:19:40;3.60;99.90
13375;DHT22;6756;51.354;15.754;2023-02-19T07:23:42;3.50;99.90
13375;DHT22;6756;51.354;15.754;2023-02-19T07:27:43;3.40;99.90
13375;DHT22;6756;51.354;15.754;2023-02-19T07:31:44;3.20;99.90
13375;DHT22;6756;51.354;15.754;2023-02-19T07:35:49;3.00;99.90
13375;DHT22;6756;51.354;15.754;2023-02-19T07:39:50;2.80;99.90
13375;DHT22;6756;51.354;15.754;2023-02-19T07:43:52;2.70;99.90
13375;DHT22;6756;51.354;15.754;2023-02-19T07:47:52;2.60;99.90
13375;DHT22;6756;51.354;15.754;2023-02-19T07:51:53;2.50;99.90
13375;DHT22;6756;51.354;15.754;2023-02-19T07:55:59;2.40;99.90
13375;DHT22;6756;51.354;15.754;2023-02-19T08:00:01;2.40;99.90
13375;DHT22;6756;51.354;15.754;2023-02-19T08:04:02;2.40;99.90
13375;DHT22;6756;51.354;15.754;2023-02-19T08:08:05;2.30;99.90
13375;DHT22;6756;51.354;15.754;2023-02-19T08:12:08;2.40;99.90
13375;DHT22;6756;51.354;15.754;2023-02-19T08:16:29;2.40;99.90
13375;DHT22;6756;51.354;15.754;2023-02-19T08:20:30;2.40;99.90
13375;DHT22;6756;51.354;15.754;2023-02-19T08:24:30;2.50;99.90
13375;DHT22;6756;51.354;15.754;2023-02-19T08:28:33;2.50;99.90
13375;DHT22;6756;51.354;15.754;2023-02-19T08:32:34;2.50;99.90
13375;DHT22;6756;51.354;15.754;2023-02-19T08:36:35;2.60;99.90
13375;DHT22;6756;51.354;15.754;2023-02-19T08:40:37;2.60;99.90
13375;DHT22;6756;51.354;15.754;2023-02-19T08:44:38;2.60;99.90
13375;DHT22;6756;51.354;15.754;2023-02-19T08:48:40;2.60;99.90
13375;DHT22;6756;51.354;15.754;2023-02-19T08:52:40;2.70;99.90
13375;DHT22;6756;51.354;15.754;2023-02-19T08:56:41;2.70;99.90
13375;DHT22;6756;51.354;15.754;2023-02-19T09:00:42;2.70;99.90
13375;DHT22;6756;51.354;15.754;2023-02-19T09:04:43;2.70;99.90
13375;DHT22;6756;51.354;15.754;2023-02-19T09:08:44;2.90;99.90
13375;DHT22;6756;51.354;15.754;2023-02-19T09:12:45;3.00;99.90
13375;DHT22;6756;51.354;15.754;2023-02-19T09:16:46;3.00;99.90
13375;DHT22;6756;51.354;15.754;2023-02-19T09:20:47;3.00;99.90
13375;DHT22;6756;51.354;15.754;2023-02-19T09:24:48;3.00;99.90
13375;DHT22;6756;51.354;15.754;2023-02-19T09:28:49;2.90;99.90
13375;DHT22;6756;51.354;15.754;2023-02-19T09:32:50;2.90;99.90
13375;DHT22;6756;51.354;15.754;2023-02-19T09:36:51;2.90;99.90
13375;DHT22;6756;51.354;15.754;2023-02-19T09:40:52;2.90;99.90
13375;DHT22;6756;51.354;15.754;2023-02-19T09:44:54;2.80;99.90
13375;DHT22;6756;51.354;15.754;2023-02-19T09:49:05;3.00;99.90
13375;DHT22;6756;51.354;15.754;2023-02-19T09:53:30;3.00;99.90
13375;DHT22;6756;51.354;15.754;2023-02-19T09:57:35;3.20;99.90
13375;DHT22;6756;51.354;15.754;2023-02-19T10:01:38;3.40;99.90
13375;DHT22;6756;51.354;15.754;2023-02-19T10:05:40;3.40;99.90
13375;DHT22;6756;51.354;15.754;2023-02-19T10:09:42;3.50;99.90
13375;DHT22;6756;51.354;15.754;2023-02-19T10:14:06;3.50;99.90
13375;DHT22;6756;51.354;15.754;2023-02-19T10:18:09;3.80;99.90
13375;DHT22;6756;51.354;15.754;2023-02-19T10:22:11;4.00;99.90
13375;DHT22;6756;51.354;15.754;2023-02-19T10:26:12;4.10;99.90
13375;DHT22;6756;51.354;15.754;2023-02-19T10:30:22;4.10;99.90
13375;DHT22;6756;51.354;15.754;2023-02-19T10:34:23;4.10;99.90
13375;DHT22;6756;51.354;15.754;2023-02-19T10:38:29;4.00;99.90
13375;DHT22;6756;51.354;15.754;2023-02-19T10:42:30;3.90;99.90
13375;DHT22;6756;51.354;15.754;2023-02-19T10:46:47;3.70;99.90
13375;DHT22;6756;51.354;15.754;2023-02-19T10:50:51;3.70;99.90
13375;DHT22;6756;51.354;15.754;2023-02-19T11:03:20;4.00;99.90
13375;DHT22;6756;51.354;15.754;2023-02-19T11:07:22;4.10;99.90
13375;DHT22;6756;51.354;15.754;2023-02-19T11:11:34;4.20;99.90
13375;DHT22;6756;51.354;15.754;2023-02-19T11:15:36;4.10;99.90
13375;DHT22;6756;51.354;15.754;2023-02-19T11:19:40;4.20;99.90
13375;DHT22;6756;51.354;15.754;2023-02-19T11:23:44;4.10;99.90
13375;DHT22;6756;51.354;15.754;2023-02-19T11:28:18;4.30;71.60
13375;DHT22;6756;51.354;15.754;2023-02-19T11:36:27;4.50;99.90
13375;DHT22;6756;51.354;15.754;2023-02-19T12:03:15;4.40;17.50
13375;DHT22;6756;51.354;15.754;2023-02-19T12:21:04;4.80;99.90
13375;DHT22;6756;51.354;15.754;2023-02-19T12:25:27;4.80;1.00
13375;DHT22;6756;51.354;15.754;2023-02-19T12:33:41;4.70;1.00
13375;DHT22;6756;51.354;15.754;2023-02-19T12:46:41;4.90;1.00
13375;DHT22;6756;51.354;15.754;2023-02-19T12:50:44;4.90;1.00
13375;DHT22;6756;51.354;15.754;2023-02-19T12:54:49;4.80;99.90
13375;DHT22;6756;51.354;15.754;2023-02-19T12:59:11;4.80;99.90
13375;DHT22;6756;51.354;15.754;2023-02-19T13:11:57;4.70;1.00
13375;DHT22;6756;51.354;15.754;2023-02-19T13:16:05;4.70;1.00
13375;DHT22;6756;51.354;15.754;2023-02-19T13:20:37;4.80;1.00
13375;DHT22;6756;51.354;15.754;2023-02-19T13:24:41;4.90;1.00
13375;DHT22;6756;51.354;15.754;2023-02-19T13:29:04;4.80;99.90
13375;DHT22;6756;51.354;15.754;2023-02-19T13:33:21;4.70;99.90
13375;DHT22;6756;51.354;15.754;2023-02-19T13:37:25;4.60;99.90
13375;DHT22;6756;51.354;15.754;2023-02-19T13:41:30;4.50;1.00
13375;DHT22;6756;51.354;15.754;2023-02-19T13:45:41;4.40;1.00
13375;DHT22;6756;51.354;15.754;2023-02-19T13:49:47;4.30;1.00
13375;DHT22;6756;51.354;15.754;2023-02-19T14:02:32;4.10;1.00
13375;DHT22;6756;51.354;15.754;2023-02-19T14:11:04;4.00;1.00
13375;DHT22;6756;51.354;15.754;2023-02-19T14:23:41;3.90;1.00
13375;DHT22;6756;51.354;15.754;2023-02-19T14:27:42;4.00;99.90
13375;DHT22;6756;51.354;15.754;2023-02-19T14:31:44;4.30;99.90
13375;DHT22;6756;51.354;15.754;2023-02-19T14:35:50;4.50;99.90
13375;DHT22;6756;51.354;15.754;2023-02-19T14:39:52;4.80;99.90
13375;DHT22;6756;51.354;15.754;2023-02-19T14:43:57;5.10;99.90
13375;DHT22;6756;51.354;15.754;2023-02-19T14:47:59;5.30;99.90
13375;DHT22;6756;51.354;15.754;2023-02-19T14:52:05;5.30;99.90
13375;DHT22;6756;51.354;15.754;2023-02-19T14:56:19;5.20;99.90
13375;DHT22;6756;51.354;15.754;2023-02-19T15:00:28;5.00;99.90
13375;DHT22;6756;51.354;15.754;2023-02-19T15:04:35;4.90;99.90
13375;DHT22;6756;51.354;15.754;2023-02-19T15:08:41;4.80;99.90
13375;DHT22;6756;51.354;15.754;2023-02-19T15:12:46;4.70;99.90
13375;DHT22;6756;51.354;15.754;2023-02-19T15:16:55;4.50;99.90
13375;DHT22;6756;51.354;15.754;2023-02-19T15:21:00;4.40;99.90
13375;DHT22;6756;51.354;15.754;2023-02-19T15:25:03;4.50;99.90
13375;DHT22;6756;51.354;15.754;2023-02-19T15:29:13;4.40;99.90
13375;DHT22;6756;51.354;15.754;2023-02-19T15:33:19;4.40;99.90
13375;DHT22;6756;51.354;15.754;2023-02-19T15:37:23;4.30;99.90
13375;DHT22;6756;51.354;15.754;2023-02-19T15:41:28;4.20;99.90
13375;DHT22;6756;51.354;15.754;2023-02-19T15:45:40;4.10;99.90
13375;DHT22;6756;51.354;15.754;2023-02-19T16:02:42;4.00;99.90
13375;DHT22;6756;51.354;15.754;2023-02-19T16:07:00;3.90;99.90
13375;DHT22;6756;51.354;15.754;2023-02-19T16:11:04;3.80;99.90
13375;DHT22;6756;51.354;15.754;2023-02-19T16:15:21;3.70;99.90
13375;DHT22;6756;51.354;15.754;2023-02-19T16:19:32;3.70;99.90
13375;DHT22;6756;51.354;15.754;2023-02-19T16:23:41;3.60;99.90
13375;DHT22;6756;51.354;15.754;2023-02-19T16:27:42;3.50;99.90
13375;DHT22;6756;51.354;15.754;2023-02-19T16:31:48;3.30;99.90
13375;DHT22;6756;51.354;15.754;2023-02-19T16:35:50;3.20;99.90
13375;DHT22;6756;51.354;15.754;2023-02-19T16:48:21;3.00;1.00
13375;DHT22;6756;51.354;15.754;2023-02-19T16:52:23;3.10;1.00
13375;DHT22;6756;51.354;15.754;2023-02-19T16:56:24;3.10;1.00
13375;DHT22;6756;51.354;15.754;2023-02-19T17:00:28;3.00;1.00
13375;DHT22;6756;51.354;15.754;2023-02-19T17:04:29;3.00;1.00
13375;DHT22;6756;51.354;15.754;2023-02-19T17:08:39;2.90;1.00
13375;DHT22;6756;51.354;15.754;2023-02-19T17:12:41;2.90;1.00
13375;DHT22;6756;51.354;15.754;2023-02-19T17:16:42;2.90;1.00
13375;DHT22;6756;51.354;15.754;2023-02-19T17:25:06;2.90;1.00
13375;DHT22;6756;51.354;15.754;2023-02-19T17:29:12;2.90;1.00
13375;DHT22;6756;51.354;15.754;2023-02-19T17:33:13;2.90;1.00
13375;DHT22;6756;51.354;15.754;2023-02-19T17:37:14;3.00;1.00
13375;DHT22;6756;51.354;15.754;2023-02-19T17:41:15;3.00;1.00
13375;DHT22;6756;51.354;15.754;2023-02-19T17:45:16;3.10;1.00
13375;DHT22;6756;51.354;15.754;2023-02-19T17:49:19;2.90;1.00
13375;DHT22;6756;51.354;15.754;2023-02-19T17:53:20;2.80;1.00
13375;DHT22;6756;51.354;15.754;2023-02-19T17:57:20;2.70;1.00
13375;DHT22;6756;51.354;15.754;2023-02-19T18:01:21;2.60;1.00
13375;DHT22;6756;51.354;15.754;2023-02-19T18:05:23;2.50;1.00
13375;DHT22;6756;51.354;15.754;2023-02-19T18:09:24;2.40;1.00
13375;DHT22;6756;51.354;15.754;2023-02-19T18:13:25;2.30;7.60
13375;DHT22;6756;51.354;15.754;2023-02-19T18:17:26;2.20;61.40
13375;DHT22;6756;51.354;15.754;2023-02-19T18:21:27;2.10;99.90
13375;DHT22;6756;51.354;15.754;2023-02-19T18:25:28;1.90;99.90
13375;DHT22;6756;51.354;15.754;2023-02-19T18:29:29;1.70;99.90
13375;DHT22;6756;51.354;15.754;2023-02-19T18:33:31;1.50;1.00
13375;DHT22;6756;51.354;15.754;2023-02-19T18:37:32;1.40;1.00
13375;DHT22;6756;51.354;15.754;2023-02-19T18:41:33;1.40;1.00
13375;DHT22;6756;51.354;15.754;2023-02-19T18:45:34;1.30;1.00
13375;DHT22;6756;51.354;15.754;2023-02-19T18:49:36;1.30;1.00
13375;DHT22;6756;51.354;15.754;2023-02-19T18:53:37;1.30;1.00
13375;DHT22;6756;51.354;15.754;2023-02-19T18:57:38;1.20;35.50
13375;DHT22;6756;51.354;15.754;2023-02-19T19:01:39;1.10;86.90
13375;DHT22;6756;51.354;15.754;2023-02-19T19:05:40;1.10;99.90
13375;DHT22;6756;51.354;15.754;2023-02-19T19:09:41;1.00;99.90
13375;DHT22;6756;51.354;15.754;2023-02-19T19:13:44;0.90;99.90
13375;DHT22;6756;51.354;15.754;2023-02-19T19:17:46;0.80;1.00
13375;DHT22;6756;51.354;15.754;2023-02-19T19:21:53;0.90;1.00
13375;DHT22;6756;51.354;15.754;2023-02-19T19:25:54;0.90;1.00
13375;DHT22;6756;51.354;15.754;2023-02-19T19:29:55;0.90;99.90
13375;DHT22;6756;51.354;15.754;2023-02-19T19:33:57;0.90;99.90
13375;DHT22;6756;51.354;15.754;2023-02-19T19:37:58;0.90;99.90
13375;DHT22;6756;51.354;15.754;2023-02-19T19:41:59;0.70;1.00
13375;DHT22;6756;51.354;15.754;2023-02-19T19:46:03;0.60;20.30
13375;DHT22;6756;51.354;15.754;2023-02-19T19:50:04;0.50;1.00
13375;DHT22;6756;51.354;15.754;2023-02-19T19:54:05;0.60;1.00
13375;DHT22;6756;51.354;15.754;2023-02-19T19:58:09;0.70;99.90
13375;DHT22;6756;51.354;15.754;2023-02-19T20:02:11;0.70;20.90
13375;DHT22;6756;51.354;15.754;2023-02-19T20:06:12;0.80;99.90
13375;DHT22;6756;51.354;15.754;2023-02-19T20:10:13;0.80;99.90
13375;DHT22;6756;51.354;15.754;2023-02-19T20:14:17;0.90;99.90
13375;DHT22;6756;51.354;15.754;2023-02-19T20:18:19;0.90;70.30
13375;DHT22;6756;51.354;15.754;2023-02-19T20:22:21;0.90;44.30
13375;DHT22;6756;51.354;15.754;2023-02-19T20:26:27;0.90;5.10
13375;DHT22;6756;51.354;15.754;2023-02-19T20:30:28;0.80;90.50
13375;DHT22;6756;51.354;15.754;2023-02-19T20:34:32;0.80;99.90
13375;DHT22;6756;51.354;15.754;2023-02-19T20:38:33;0.80;99.90
13375;DHT22;6756;51.354;15.754;2023-02-19T20:42:36;0.80;99.90
13375;DHT22;6756;51.354;15.754;2023-02-19T20:46:48;0.80;99.90
13375;DHT22;6756;51.354;15.754;2023-02-19T20:50:49;0.70;99.90
13375;DHT22;6756;51.354;15.754;2023-02-19T20:54:55;0.70;99.90
13375;DHT22;6756;51.354;15.754;2023-02-19T20:58:56;0.70;99.90
13375;DHT22;6756;51.354;15.754;2023-02-19T21:03:03;0.70;99.90
13375;DHT22;6756;51.354;15.754;2023-02-19T21:07:04;0.60;99.90
13375;DHT22;6756;51.354;15.754;2023-02-19T21:11:05;0.60;99.90
13375;DHT22;6756;51.354;15.754;2023-02-19T21:15:06;0.60;99.90
13375;DHT22;6756;51.354;15.754;2023-02-19T21:19:08;0.60;99.90
13375;DHT22;6756;51.354;15.754;2023-02-19T21:23:09;0.50;99.90
13375;DHT22;6756;51.354;15.754;2023-02-19T21:27:09;0.30;99.90
13375;DHT22;6756;51.354;15.754;2023-02-19T21:31:10;0.20;53.40
13375;DHT22;6756;51.354;15.754;2023-02-19T21:35:11;0.20;99.90
13375;DHT22;6756;51.354;15.754;2023-02-19T21:39:18;0.20;99.90
13375;DHT22;6756;51.354;15.754;2023-02-19T21:43:19;0.20;99.90
13375;DHT22;6756;51.354;15.754;2023-02-19T21:47:20;0.10;33.40
13375;DHT22;6756;51.354;15.754;2023-02-19T21:51:28;0.00;99.90
13375;DHT22;6756;51.354;15.754;2023-02-19T21:55:29;0.00;23.50
13375;DHT22;6756;51.354;15.754;2023-02-19T21:59:30;0.10;1.00
13375;DHT22;6756;51.354;15.754;2023-02-19T22:03:31;0.10;99.90
13375;DHT22;6756;51.354;15.754;2023-02-19T22:07:32;0.20;10.90
13375;DHT22;6756;51.354;15.754;2023-02-19T22:11:33;0.20;1.00
13375;DHT22;6756;51.354;15.754;2023-02-19T22:15:34;0.30;1.00
13375;DHT22;6756;51.354;15.754;2023-02-19T22:19:34;0.20;1.00
13375;DHT22;6756;51.354;15.754;2023-02-19T22:23:35;0.20;1.00
13375;DHT22;6756;51.354;15.754;2023-02-19T22:27:36;0.10;39.00
13375;DHT22;6756;51.354;15.754;2023-02-19T22:31:37;0.00;99.90
13375;DHT22;6756;51.354;15.754;2023-02-19T22:35:38;-0.10;6.70
13375;DHT22;6756;51.354;15.754;2023-02-19T22:39:39;-0.10;1.00
13375;DHT22;6756;51.354;15.754;2023-02-19T22:43:40;-0.10;99.90
13375;DHT22;6756;51.354;15.754;2023-02-19T22:47:41;-0.10;71.30
13375;DHT22;6756;51.354;15.754;2023-02-19T22:51:55;-0.10;99.90
13375;DHT22;6756;51.354;15.754;2023-02-19T22:55:56;0.00;1.00
13375;DHT22;6756;51.354;15.754;2023-02-19T22:59:57;0.00;99.90
13375;DHT22;6756;51.354;15.754;2023-02-19T23:03:58;0.10;1.00
13375;DHT22;6756;51.354;15.754;2023-02-19T23:08:00;0.10;99.90
13375;DHT22;6756;51.354;15.754;2023-02-19T23:12:07;0.20;99.90
13375;DHT22;6756;51.354;15.754;2023-02-19T23:16:08;0.30;99.90
13375;DHT22;6756;51.354;15.754;2023-02-19T23:20:09;0.40;30.70
13375;DHT22;6756;51.354;15.754;2023-02-19T23:24:11;0.50;1.00
13375;DHT22;6756;51.354;15.754;2023-02-19T23:28:12;0.60;99.90
13375;DHT22;6756;51.354;15.754;2023-02-19T23:32:12;0.70;42.20
13375;DHT22;6756;51.354;15.754;2023-02-19T23:36:14;0.70;1.00
13375;DHT22;6756;51.354;15.754;2023-02-19T23:40:15;0.70;99.90
13375;DHT22;6756;51.354;15.754;2023-02-19T23:44:16;0.80;93.30
13375;DHT22;6756;51.354;15.754;2023-02-19T23:48:17;0.70;99.90
13375;DHT22;6756;51.354;15.754;2023-02-19T23:52:18;0.70;99.90
13375;DHT22;6756;51.354;15.754;2023-02-19T23:56:26;0.70;99.90
